หน้าหลัก
METAR-TAF:

METAR-TAF

ท่าอากาศยาน :

มาจูโร, หมู่เกาะมาร์แชลล์

ละติจูด: 07-04N, ลองจิจูด: 171-17E, ความสูง: 2 ม.

การสังเกตสภาพอากาศปัจจุบัน

รายงานได้ทำขึ้นเมื่อ 1 ชั่วโมงและ 7 นาทีที่แล้ว ณ เวลา 07:50 UTC
ลม 15 นอตจากตะวันออก/ตะวันออกเฉียงเหนือ
อุณหภูมิ 28°C
ความชื้น 84%
ความกดอากาศ 1008 hPa
ทัศนวิสัย: 24.1 กม.
มีเมฆน้อยที่ความสูง 1500 ฟุต
มีเมฆกระจายเป็นบางส่วนที่ความสูง 5000 ฟุต
มีเมฆเป็นส่วนมากเว้นเป็นระยะที่ความสูง 12000 ฟุต
มีเมฆมาก มืดครึ้มที่ความสูง 30000 ฟุต

METAR: PKMJ 250750Z 06015KT 15SM FEW015 SCT050 BKN120 OVC300 28/25 A2977 RMK LAST

เวลา: 20:57 (08:57 UTC)

การพยากรณ์

รายงานได้ทำขึ้นเมื่อ 3 ชั่วโมงและ 37 นาทีที่แล้ว ณ เวลา 05:20 UTC
การพยากรณ์มีผลตั้งแต่วันที่ 25 ณ เวลา 06 UTC จนถึงวันที่ 26 ณ เวลา 06 UTC
ลม 14 นอตจากตะวันออก/ตะวันออกเฉียงเหนือ
ทัศนวิสัย: 10 กม.
มีเมฆน้อยที่ความสูง 1500 ฟุต
มีเมฆกระจายเป็นบางส่วนที่ความสูง 5000 ฟุต
การโปรยปรายในบริเวณใกล้เคียง,

TAF: PKMJ 250520Z 2506/2606 06014KT P6SM VCSH FEW015 SCT050

สังเกตการณ์สภาพอากาศและพยากรณ์อากาศของสนามบินมากกว่า 4000 แห่ง (รายงาน METAR และ TAF).

สถานีที่ดูได้จะแสดงไว้ด้วยจุดสีเหลืองและสีแดงบนแผนที่.

เลื่อนเมาส์ไปเหนือจุดเพื่อดูชื่อสถานี.

แล้วคลิกเพื่อดูสังเกตการณ์และการพยากรณ์สภาพอากาศ.

ในการเปลี่ยนแผนที่: คลิกที่ปุ่มสีเขียวที่มีกากบาทสีดำเพื่อซูมเข้า; ที่ปุ่มสีเขียวที่มีขีดเพื่อซูมออก; หรือที่ลูกศรสีเขียวเพื่อไปยังแผนที่ที่อยู่ติดกัน.


METAR-TAF: